Time;durP1;ratioP1;P1;durP2;ratioP2;P2;SDS_P1;SDS_P2;PMS_P1;PMS_P2;Temp;Humidity;BMP_temperature;BMP_pressure;BME280_temperature;BME280_humidity;BME280_pressure;Samples;Min_cycle;Max_cycle;Signal;HPM_P1;HPM_P2
2022/12/24 00:01:41;;;;;;;3.83;1.33;;;;;;;;;;5043140;28;20170;-72
2022/12/24 00:04:27;;;;;;;2.63;1.30;;;;;;;;;;5054256;28;20437;-78
2022/12/24 00:07:12;;;;;;;2.63;1.20;;;;;;;;;;5053355;28;20040;-80
2022/12/24 00:09:57;;;;;;;8.80;2.38;;;;;;;;;;5053539;28;20036;-80
2022/12/24 00:12:43;;;;;;;4.72;2.35;;;;;;;;;;5048297;28;20033;-78
2022/12/24 00:15:28;;;;;;;9.57;1.92;;;;;;;;;;5057686;28;20403;-80
2022/12/24 00:18:13;;;;;;;8.32;2.00;;;;;;;;;;5043985;28;20055;-73
2022/12/24 00:21:00;;;;;;;7.10;3.30;;;;;;;;;;5037488;28;20021;-72
2022/12/24 00:23:45;;;;;;;7.10;2.80;;;;;;;;;;5050891;28;20116;-70
2022/12/24 00:26:31;;;;;;;8.88;2.30;;;;;;;;;;5048895;28;20112;-70
2022/12/24 00:29:17;;;;;;;9.73;2.15;;;;;;;;;;5042745;28;20054;-69
2022/12/24 00:32:06;;;;;;;2.80;1.63;;;;;;;;;;5056617;28;20531;-69
2022/12/24 00:34:51;;;;;;;5.32;1.58;;;;;;;;;;5040233;28;20060;-69
2022/12/24 00:37:37;;;;;;;5.05;1.27;;;;;;;;;;5046703;28;20071;-69
2022/12/24 00:40:22;;;;;;;4.00;1.70;;;;;;;;;;5043672;28;20032;-74
2022/12/24 00:43:07;;;;;;;5.32;1.65;;;;;;;;;;5049588;28;20155;-74
2022/12/24 00:45:52;;;;;;;4.93;1.77;;;;;;;;;;5042012;28;20141;-74
2022/12/24 00:48:37;;;;;;;6.88;1.75;;;;;;;;;;5055142;28;20165;-73
2022/12/24 00:51:23;;;;;;;6.85;1.73;;;;;;;;;;5051172;28;20073;-73
2022/12/24 00:54:08;;;;;;;4.85;1.63;;;;;;;;;;5047029;28;20035;-73
2022/12/24 00:56:54;;;;;;;6.82;2.33;;;;;;;;;;5047057;28;20032;-71
2022/12/24 00:59:39;;;;;;;5.60;2.00;;;;;;;;;;5052415;28;20050;-70
2022/12/24 01:02:24;;;;;;;5.68;1.40;;;;;;;;;;5048263;28;20029;-68
2022/12/24 01:05:10;;;;;;;5.80;1.70;;;;;;;;;;5053165;28;20031;-70
2022/12/24 01:07:55;;;;;;;5.65;2.13;;;;;;;;;;5046380;28;20032;-68
2022/12/24 01:10:40;;;;;;;6.05;1.60;;;;;;;;;;5049912;28;20040;-69
2022/12/24 01:13:25;;;;;;;4.88;2.05;;;;;;;;;;5049501;28;20040;-73
2022/12/24 01:16:15;;;;;;;7.57;2.20;;;;;;;;;;5048428;28;20040;-71
2022/12/24 01:19:00;;;;;;;;;;;;;;;;;;5042188;28;20036;-72
2022/12/24 01:21:45;;;;;;;11.35;2.15;;;;;;;;;;5057542;28;19920;-73
2022/12/24 01:24:30;;;;;;;6.72;2.10;;;;;;;;;;5054038;28;20044;-72
2022/12/24 01:27:16;;;;;;;6.65;1.90;;;;;;;;;;5061235;28;20353;-72
2022/12/24 01:30:01;;;;;;;4.53;1.55;;;;;;;;;;5057063;28;20036;-71
2022/12/24 01:32:46;;;;;;;7.68;1.50;;;;;;;;;;5053105;28;20029;-69
2022/12/24 01:35:31;;;;;;;7.50;2.35;;;;;;;;;;5052045;28;20127;-76
2022/12/24 01:38:17;;;;;;;4.30;1.67;;;;;;;;;;5047467;28;20061;-76
2022/12/24 01:44:20;;;;;;;7.28;1.70;;;;;;;;;;5047582;28;20029;-76
2022/12/24 01:47:08;;;;;;;8.88;2.20;;;;;;;;;;5049113;28;20074;-75
2022/12/24 01:49:56;;;;;;;6.93;2.15;;;;;;;;;;5052714;28;20046;-67
2022/12/24 01:52:41;;;;;;;4.40;1.77;;;;;;;;;;5060522;28;20040;-75
2022/12/24 01:55:26;;;;;;;6.10;2.03;;;;;;;;;;5057540;28;20050;-76
2022/12/24 01:58:13;;;;;;;5.65;2.22;;;;;;;;;;5047564;28;20028;-76
2022/12/24 02:00:58;;;;;;;6.95;3.03;;;;;;;;;;5061732;28;20031;-76
2022/12/24 02:03:44;;;;;;;8.02;2.22;;;;;;;;;;5051217;28;20025;-78
2022/12/24 02:06:29;;;;;;;8.25;2.58;;;;;;;;;;5056306;28;20350;-76
2022/12/24 02:09:14;;;;;;;16.67;3.00;;;;;;;;;;5039998;28;20029;-67
2022/12/24 02:11:59;;;;;;;6.28;1.65;;;;;;;;;;5038403;28;20041;-67
2022/12/24 02:14:45;;;;;;;11.23;3.30;;;;;;;;;;5042491;28;20090;-66
2022/12/24 02:17:48;;;;;;;7.20;2.60;;;;;;;;;;5038615;28;20033;-67
2022/12/24 02:20:52;;;;;;;9.60;2.15;;;;;;;;;;5047531;28;20044;-68
2022/12/24 02:23:43;;;;;;;8.25;2.15;;;;;;;;;;5048388;28;20040;-67
2022/12/24 02:26:38;;;;;;;8.00;2.35;;;;;;;;;;5043648;28;20091;-72
2022/12/24 02:29:23;;;;;;;6.88;2.10;;;;;;;;;;5038418;28;20510;-65
2022/12/24 02:32:08;;;;;;;8.02;2.30;;;;;;;;;;5059978;28;20357;-67
2022/12/24 02:35:12;;;;;;;8.27;2.08;;;;;;;;;;5046011;28;20476;-65
2022/12/24 02:38:00;;;;;;;5.65;2.78;;;;;;;;;;5053489;28;20033;-67
2022/12/24 02:40:54;;;;;;;5.88;2.20;;;;;;;;;;5047526;28;20047;-67
2022/12/24 02:43:41;;;;;;;6.05;2.63;;;;;;;;;;5050869;28;20040;-68
2022/12/24 02:46:28;;;;;;;8.68;2.53;;;;;;;;;;5044833;28;20044;-66
2022/12/24 02:49:13;;;;;;;7.35;2.38;;;;;;;;;;5042741;28;20124;-70
2022/12/24 02:51:58;;;;;;;10.10;3.05;;;;;;;;;;5051785;28;20376;-69
2022/12/24 02:54:44;;;;;;;6.90;2.05;;;;;;;;;;5028444;28;20029;-70
2022/12/24 02:57:37;;;;;;;5.93;1.80;;;;;;;;;;5052643;28;20040;-70
2022/12/24 03:00:23;;;;;;;12.80;3.20;;;;;;;;;;5049010;28;20032;-69
2022/12/24 03:03:08;;;;;;;10.85;2.10;;;;;;;;;;5041100;28;20029;-69
2022/12/24 03:06:04;;;;;;;4.82;1.65;;;;;;;;;;5050689;28;20514;-71
2022/12/24 03:08:58;;;;;;;8.70;1.80;;;;;;;;;;5042656;28;20518;-74
2022/12/24 03:11:47;;;;;;;3.78;1.73;;;;;;;;;;5062059;28;20071;-75
2022/12/24 03:14:33;;;;;;;4.87;1.90;;;;;;;;;;5034048;28;20047;-74
2022/12/24 03:17:19;;;;;;;6.85;2.05;;;;;;;;;;5044535;28;20156;-75
2022/12/24 03:20:05;;;;;;;3.67;1.88;;;;;;;;;;5046873;28;20063;-73
2022/12/24 03:22:50;;;;;;;10.30;2.72;;;;;;;;;;5041596;28;20040;-72
2022/12/24 03:25:38;;;;;;;8.15;1.80;;;;;;;;;;5042293;28;20504;-79
2022/12/24 03:28:25;;;;;;;6.10;1.80;;;;;;;;;;5043262;28;20047;-80
2022/12/24 03:31:10;;;;;;;5.05;2.70;;;;;;;;;;5043670;28;20112;-80
2022/12/24 03:33:55;;;;;;;4.00;2.03;;;;;;;;;;5045152;28;20067;-81
2022/12/24 03:36:41;;;;;;;5.47;1.85;;;;;;;;;;5054863;28;20547;-79
2022/12/24 03:39:26;;;;;;;12.27;2.08;;;;;;;;;;5037690;28;20078;-80
2022/12/24 03:42:11;;;;;;;13.07;2.92;;;;;;;;;;5057296;28;20020;-69
2022/12/24 03:44:56;;;;;;;9.38;2.42;;;;;;;;;;5042122;28;20170;-69
2022/12/24 03:47:42;;;;;;;10.18;2.42;;;;;;;;;;5045328;28;20039;-69
2022/12/24 03:50:27;;;;;;;9.93;3.17;;;;;;;;;;5044106;28;20033;-69
2022/12/24 03:53:12;;;;;;;7.43;2.15;;;;;;;;;;5051900;28;20511;-69
2022/12/24 03:55:57;;;;;;;4.95;2.03;;;;;;;;;;5051436;28;20390;-68
2022/12/24 03:58:42;;;;;;;4.05;2.25;;;;;;;;;;5043640;28;20033;-72
2022/12/24 04:01:28;;;;;;;6.55;2.00;;;;;;;;;;5040134;28;20483;-72
2022/12/24 04:04:13;;;;;;;6.45;1.75;;;;;;;;;;5035135;28;20078;-73
2022/12/24 04:06:58;;;;;;;8.60;2.03;;;;;;;;;;5051461;28;20043;-72
2022/12/24 04:09:43;;;;;;;8.57;2.47;;;;;;;;;;5046679;28;20036;-73
2022/12/24 04:12:29;;;;;;;6.70;2.05;;;;;;;;;;5046623;28;20487;-72
2022/12/24 04:15:14;;;;;;;6.25;2.42;;;;;;;;;;5044681;28;20029;-74
2022/12/24 04:17:59;;;;;;;6.30;1.70;;;;;;;;;;5051512;28;20040;-72
2022/12/24 04:20:44;;;;;;;10.63;2.13;;;;;;;;;;5044981;28;20033;-72
2022/12/24 04:23:30;;;;;;;9.25;3.10;;;;;;;;;;5040963;28;20467;-72
2022/12/24 04:26:16;;;;;;;6.47;1.77;;;;;;;;;;5044096;28;20025;-71
2022/12/24 04:29:01;;;;;;;7.00;2.10;;;;;;;;;;5042619;28;20064;-72
2022/12/24 04:31:46;;;;;;;10.35;2.47;;;;;;;;;;5053383;28;20032;-70
2022/12/24 04:34:31;;;;;;;8.65;2.25;;;;;;;;;;5043013;28;20033;-72
2022/12/24 04:37:16;;;;;;;7.75;1.90;;;;;;;;;;5048322;28;20033;-68
2022/12/24 04:40:02;;;;;;;6.30;2.03;;;;;;;;;;5034148;28;20048;-73
2022/12/24 04:42:49;;;;;;;10.70;2.70;;;;;;;;;;5061177;28;20471;-73
2022/12/24 04:45:34;;;;;;;6.43;2.35;;;;;;;;;;5054078;28;20028;-72
2022/12/24 04:48:19;;;;;;;9.25;2.95;;;;;;;;;;5045130;28;20037;-72
2022/12/24 04:51:05;;;;;;;7.88;2.38;;;;;;;;;;5041899;28;20612;-71
2022/12/24 04:53:50;;;;;;;5.78;1.83;;;;;;;;;;5062160;28;20048;-79
2022/12/24 04:56:36;;;;;;;5.90;2.13;;;;;;;;;;5056882;28;20032;-68
2022/12/24 04:59:21;;;;;;;8.35;2.60;;;;;;;;;;5049671;28;20455;-69
2022/12/24 05:02:06;;;;;;;6.32;2.28;;;;;;;;;;5057133;28;20071;-67
2022/12/24 05:04:51;;;;;;;9.50;2.15;;;;;;;;;;5051275;28;20048;-68
2022/12/24 05:07:36;;;;;;;10.05;2.13;;;;;;;;;;5051945;28;20481;-68
2022/12/24 05:10:22;;;;;;;9.23;2.25;;;;;;;;;;5044986;28;20033;-68
2022/12/24 05:13:07;;;;;;;10.23;3.20;;;;;;;;;;5058843;28;20112;-76
2022/12/24 05:15:52;;;;;;;6.78;2.20;;;;;;;;;;5039758;28;20062;-66
2022/12/24 05:18:37;;;;;;;4.78;1.50;;;;;;;;;;5035986;28;20091;-67
2022/12/24 05:21:24;;;;;;;9.25;1.85;;;;;;;;;;5047391;28;20123;-67
2022/12/24 05:27:34;;;;;;;10.82;1.80;;;;;;;;;;4967976;28;20133;-68
2022/12/24 05:30:19;;;;;;;8.73;1.80;;;;;;;;;;4970305;28;20030;-72
2022/12/24 05:33:04;;;;;;;6.65;1.85;;;;;;;;;;5032660;28;20526;-74
2022/12/24 05:35:50;;;;;;;13.23;2.25;;;;;;;;;;5040897;28;20086;-71
2022/12/24 05:38:36;;;;;;;12.05;2.20;;;;;;;;;;5023440;28;20025;-71
2022/12/24 05:41:21;;;;;;;8.80;2.15;;;;;;;;;;5039841;28;20156;-72
2022/12/24 05:44:06;;;;;;;5.25;1.50;;;;;;;;;;5054515;28;20124;-72
2022/12/24 05:46:51;;;;;;;6.93;2.40;;;;;;;;;;5054874;28;20024;-72
2022/12/24 05:49:37;;;;;;;13.32;2.63;;;;;;;;;;5045626;28;20096;-72
2022/12/24 05:52:22;;;;;;;10.95;2.53;;;;;;;;;;5056897;28;20555;-73
2022/12/24 05:55:08;;;;;;;6.55;1.65;;;;;;;;;;5051890;28;20036;-73
2022/12/24 05:57:53;;;;;;;11.35;2.22;;;;;;;;;;5046246;28;20033;-74
2022/12/24 06:00:38;;;;;;;6.10;1.90;;;;;;;;;;5044197;28;20072;-74
2022/12/24 06:03:23;;;;;;;6.45;2.47;;;;;;;;;;5047080;28;20040;-73
2022/12/24 06:06:13;;;;;;;10.77;1.83;;;;;;;;;;5047529;28;20045;-73
2022/12/24 06:08:58;;;;;;;8.45;2.38;;;;;;;;;;5047974;28;20036;-68
2022/12/24 06:11:43;;;;;;;9.38;2.05;;;;;;;;;;5044277;28;20431;-68
2022/12/24 06:14:29;;;;;;;10.57;2.53;;;;;;;;;;5052899;28;20085;-67
2022/12/24 06:17:14;;;;;;;3.97;1.55;;;;;;;;;;5040938;28;20032;-66
2022/12/24 06:19:59;;;;;;;11.43;2.05;;;;;;;;;;5044370;28;20036;-66
2022/12/24 06:22:44;;;;;;;7.30;1.95;;;;;;;;;;5062027;28;20028;-65
2022/12/24 06:25:29;;;;;;;9.50;1.88;;;;;;;;;;5040224;28;20029;-68
2022/12/24 06:28:15;;;;;;;6.60;2.00;;;;;;;;;;5051186;28;20043;-68
2022/12/24 06:31:01;;;;;;;6.35;1.83;;;;;;;;;;5046737;28;20028;-79
2022/12/24 06:33:47;;;;;;;9.75;2.60;;;;;;;;;;5050677;28;20036;-79
2022/12/24 06:36:32;;;;;;;7.05;2.03;;;;;;;;;;5036470;28;20040;-80
2022/12/24 06:39:17;;;;;;;9.63;2.95;;;;;;;;;;5044944;28;20031;-80
2022/12/24 06:42:03;;;;;;;10.80;2.50;;;;;;;;;;5056367;28;20472;-79
2022/12/24 06:44:48;;;;;;;12.30;2.78;;;;;;;;;;5042053;28;20036;-80
2022/12/24 06:47:33;;;;;;;8.27;2.20;;;;;;;;;;5050893;28;20039;-80
2022/12/24 06:50:18;;;;;;;7.10;2.00;;;;;;;;;;5044602;28;20063;-80
2022/12/24 06:53:04;;;;;;;8.68;2.85;;;;;;;;;;5041346;28;20312;-80
2022/12/24 06:55:49;;;;;;;5.25;1.60;;;;;;;;;;5052728;28;20119;-79
2022/12/24 06:58:35;;;;;;;7.82;2.63;;;;;;;;;;5055106;28;20595;-79
2022/12/24 07:01:20;;;;;;;11.05;2.25;;;;;;;;;;5040989;28;20021;-80
2022/12/24 07:04:05;;;;;;;9.52;2.55;;;;;;;;;;5047364;28;20051;-73
2022/12/24 07:06:50;;;;;;;8.57;3.28;;;;;;;;;;5051204;28;20566;-69
2022/12/24 07:09:36;;;;;;;10.23;2.33;;;;;;;;;;5046724;28;20036;-66
2022/12/24 07:12:21;;;;;;;8.73;2.38;;;;;;;;;;5048039;28;20053;-68
2022/12/24 07:15:06;;;;;;;10.90;2.10;;;;;;;;;;5047151;28;20023;-68
2022/12/24 07:17:52;;;;;;;11.38;2.75;;;;;;;;;;5046589;28;20371;-67
2022/12/24 07:20:37;;;;;;;8.18;2.00;;;;;;;;;;5047635;28;20412;-72
2022/12/24 07:23:23;;;;;;;5.13;2.47;;;;;;;;;;5045343;28;20032;-80
2022/12/24 07:26:09;;;;;;;7.00;2.20;;;;;;;;;;5049030;28;20091;-67
2022/12/24 07:28:54;;;;;;;10.13;2.35;;;;;;;;;;5059499;28;20409;-67
2022/12/24 07:31:39;;;;;;;6.68;2.08;;;;;;;;;;5045879;28;20036;-68
2022/12/24 07:34:25;;;;;;;8.95;2.75;;;;;;;;;;5046864;28;20279;-67
2022/12/24 07:37:10;;;;;;;13.05;3.00;;;;;;;;;;5038427;28;20033;-68
2022/12/24 07:39:55;;;;;;;8.93;2.67;;;;;;;;;;5043840;28;20049;-72
2022/12/24 07:42:40;;;;;;;8.55;2.33;;;;;;;;;;5038047;28;20025;-70
2022/12/24 07:45:26;;;;;;;8.15;2.05;;;;;;;;;;5052555;28;20055;-70
2022/12/24 07:48:11;;;;;;;6.30;1.98;;;;;;;;;;5027385;28;20045;-69
2022/12/24 07:50:56;;;;;;;7.32;2.67;;;;;;;;;;5035325;28;20037;-68
2022/12/24 07:53:46;;;;;;;14.43;2.67;;;;;;;;;;5046290;28;20482;-70
2022/12/24 07:56:31;;;;;;;7.10;2.33;;;;;;;;;;5046109;28;20025;-69
2022/12/24 07:59:17;;;;;;;13.05;3.72;;;;;;;;;;5053504;28;20048;-80
2022/12/24 08:02:02;;;;;;;6.93;2.65;;;;;;;;;;5038580;28;20032;-73
2022/12/24 08:04:47;;;;;;;9.82;2.40;;;;;;;;;;5037661;28;20029;-74
2022/12/24 08:07:32;;;;;;;6.88;2.42;;;;;;;;;;5051722;28;20041;-73
2022/12/24 08:10:18;;;;;;;12.43;2.80;;;;;;;;;;5040117;28;20025;-73
2022/12/24 08:13:03;;;;;;;9.25;2.38;;;;;;;;;;5040126;28;20029;-74
2022/12/24 08:15:48;;;;;;;11.73;3.15;;;;;;;;;;5034820;28;20040;-80
2022/12/24 08:18:33;;;;;;;4.50;1.88;;;;;;;;;;5055370;28;20494;-72
2022/12/24 08:21:18;;;;;;;6.93;2.97;;;;;;;;;;5049681;28;20148;-72
2022/12/24 08:24:04;;;;;;;5.25;2.53;;;;;;;;;;5051170;28;20086;-71
2022/12/24 08:26:49;;;;;;;13.75;3.35;;;;;;;;;;5023025;28;20113;-71
2022/12/24 08:29:34;;;;;;;7.38;2.45;;;;;;;;;;5055578;28;20331;-72
2022/12/24 08:32:19;;;;;;;8.45;2.97;;;;;;;;;;5048202;28;20064;-72
2022/12/24 08:35:05;;;;;;;8.05;2.95;;;;;;;;;;5063498;28;20032;-80
2022/12/24 08:37:50;;;;;;;12.38;3.15;;;;;;;;;;5044595;28;20148;-75
2022/12/24 08:40:35;;;;;;;6.10;2.28;;;;;;;;;;5041052;28;20049;-76
2022/12/24 08:43:21;;;;;;;7.65;2.70;;;;;;;;;;5059845;28;20040;-75
2022/12/24 08:46:06;;;;;;;10.15;2.55;;;;;;;;;;5045599;28;20036;-76
2022/12/24 08:48:51;;;;;;;9.63;3.03;;;;;;;;;;5059814;28;20074;-75
2022/12/24 08:51:37;;;;;;;8.43;3.13;;;;;;;;;;5046608;28;20131;-75
2022/12/24 08:54:24;;;;;;;8.10;2.65;;;;;;;;;;5047975;28;20201;-65
2022/12/24 08:57:09;;;;;;;11.23;3.78;;;;;;;;;;5047380;28;20036;-73
2022/12/24 08:59:54;;;;;;;8.95;2.92;;;;;;;;;;5048653;28;20128;-72
2022/12/24 09:02:39;;;;;;;11.57;3.83;;;;;;;;;;5046541;28;20292;-72
2022/12/24 09:05:24;;;;;;;8.38;2.78;;;;;;;;;;5055561;28;20044;-72
2022/12/24 09:08:10;;;;;;;7.72;2.97;;;;;;;;;;5050340;28;20471;-75
2022/12/24 09:10:55;;;;;;;9.60;3.15;;;;;;;;;;5044486;28;20037;-73
2022/12/24 09:13:41;;;;;;;13.43;3.10;;;;;;;;;;5047274;28;20059;-71
2022/12/24 09:16:26;;;;;;;7.10;2.45;;;;;;;;;;5052916;28;20033;-80
2022/12/24 09:19:11;;;;;;;9.48;3.15;;;;;;;;;;5046344;28;20513;-80
2022/12/24 09:21:56;;;;;;;9.65;3.70;;;;;;;;;;5044112;28;20036;-79
2022/12/24 09:24:42;;;;;;;9.93;3.67;;;;;;;;;;5043841;28;20035;-80
2022/12/24 09:27:28;;;;;;;10.02;3.67;;;;;;;;;;5036536;28;20433;-80
2022/12/24 09:30:14;;;;;;;10.30;3.45;;;;;;;;;;5048861;28;20396;-76
2022/12/24 09:32:59;;;;;;;7.90;3.30;;;;;;;;;;5049599;28;20040;-75
2022/12/24 09:35:44;;;;;;;10.65;4.15;;;;;;;;;;5045562;28;20048;-73
2022/12/24 09:38:29;;;;;;;13.98;3.53;;;;;;;;;;5042060;28;20036;-74
2022/12/24 09:41:21;;;;;;;11.57;3.38;;;;;;;;;;5035695;28;20125;-72
2022/12/24 09:44:09;;;;;;;10.38;2.95;;;;;;;;;;5053018;28;20155;-74
2022/12/24 09:46:56;;;;;;;11.70;5.00;;;;;;;;;;5047677;28;20021;-74
2022/12/24 09:49:43;;;;;;;14.23;3.95;;;;;;;;;;5041993;28;20095;-76
2022/12/24 09:52:34;;;;;;;8.05;2.78;;;;;;;;;;5037751;28;20043;-70
2022/12/24 09:55:27;;;;;;;9.80;3.20;;;;;;;;;;5058424;28;20042;-69
2022/12/24 09:58:18;;;;;;;11.75;2.75;;;;;;;;;;5045303;28;20032;-70
2022/12/24 10:01:03;;;;;;;9.40;2.65;;;;;;;;;;5049787;28;20475;-70
2022/12/24 10:03:48;;;;;;;11.52;3.33;;;;;;;;;;5051639;28;20070;-70
2022/12/24 10:06:42;;;;;;;8.65;2.75;;;;;;;;;;5049142;28;20033;-77
2022/12/24 10:09:32;;;;;;;10.90;3.38;;;;;;;;;;5059125;28;20034;-71
2022/12/24 10:12:31;;;;;;;12.65;3.10;;;;;;;;;;5050593;28;20048;-68
2022/12/24 10:15:38;;;;;;;8.35;2.60;;;;;;;;;;5042121;28;20168;-67
2022/12/24 10:18:29;;;;;;;10.35;2.90;;;;;;;;;;5052127;28;20475;-68
2022/12/24 10:21:15;;;;;;;8.40;3.28;;;;;;;;;;5058246;28;20483;-67
2022/12/24 10:24:04;;;;;;;13.43;4.00;;;;;;;;;;5054083;28;20036;-67
2022/12/24 10:26:55;;;;;;;7.30;2.85;;;;;;;;;;5045846;28;20039;-69
2022/12/24 10:29:42;;;;;;;10.43;2.55;;;;;;;;;;5051277;28;20034;-72
2022/12/24 10:32:30;;;;;;;10.10;3.20;;;;;;;;;;5040979;28;20426;-73
2022/12/24 10:35:15;;;;;;;9.52;2.90;;;;;;;;;;5049510;28;20650;-71
2022/12/24 10:38:01;;;;;;;8.52;2.97;;;;;;;;;;5048932;28;20332;-72
2022/12/24 10:40:48;;;;;;;29.80;4.05;;;;;;;;;;5044731;28;20043;-71
2022/12/24 10:43:34;;;;;;;9.65;2.33;;;;;;;;;;5039053;28;20040;-73
2022/12/24 10:46:26;;;;;;;7.70;2.53;;;;;;;;;;5038459;28;20036;-80
2022/12/24 10:49:14;;;;;;;11.13;2.72;;;;;;;;;;5045370;28;20483;-80
2022/12/24 10:52:04;;;;;;;8.45;2.90;;;;;;;;;;5041443;28;20377;-79
2022/12/24 10:55:07;;;;;;;7.90;3.55;;;;;;;;;;5041071;28;20170;-79
2022/12/24 10:58:04;;;;;;;9.60;3.28;;;;;;;;;;5046474;28;20208;-79
2022/12/24 11:00:50;;;;;;;8.85;3.70;;;;;;;;;;5049452;28;20036;-79
2022/12/24 11:03:36;;;;;;;11.82;3.70;;;;;;;;;;5047725;28;20123;-75
2022/12/24 11:06:22;;;;;;;13.60;3.22;;;;;;;;;;5044451;28;20044;-75
2022/12/24 11:09:20;;;;;;;10.48;3.05;;;;;;;;;;5047239;28;20035;-74
2022/12/24 11:12:14;;;;;;;15.90;4.60;;;;;;;;;;5043953;28;20438;-73
2022/12/24 11:15:06;;;;;;;10.63;3.08;;;;;;;;;;5053724;28;20121;-74
2022/12/24 11:17:52;;;;;;;12.32;4.43;;;;;;;;;;5041554;28;20062;-75
2022/12/24 11:20:37;;;;;;;10.60;2.97;;;;;;;;;;5047152;28;20036;-68
2022/12/24 11:23:23;;;;;;;12.07;3.25;;;;;;;;;;5047094;28;20132;-73
2022/12/24 11:26:08;;;;;;;14.13;3.50;;;;;;;;;;5035776;28;20047;-74
2022/12/24 11:29:17;;;;;;;11.90;3.72;;;;;;;;;;5042481;28;20180;-73
2022/12/24 11:32:09;;;;;;;16.13;3.25;;;;;;;;;;5047684;28;20047;-74
2022/12/24 11:34:55;;;;;;;12.40;3.58;;;;;;;;;;5053435;28;20039;-76
2022/12/24 11:37:40;;;;;;;12.13;3.92;;;;;;;;;;5044883;28;20265;-76
2022/12/24 11:40:35;;;;;;;10.43;3.13;;;;;;;;;;5052541;28;20059;-68
2022/12/24 11:43:20;;;;;;;13.10;3.63;;;;;;;;;;5032221;28;20039;-74
2022/12/24 11:46:10;;;;;;;8.30;2.58;;;;;;;;;;5053283;28;20033;-73
2022/12/24 11:49:11;;;;;;;10.05;2.72;;;;;;;;;;5044981;28;20040;-74
2022/12/24 11:52:08;;;;;;;13.27;3.42;;;;;;;;;;5046873;28;20127;-74
2022/12/24 11:54:54;;;;;;;12.48;3.33;;;;;;;;;;5042100;28;20037;-74
2022/12/24 11:57:58;;;;;;;9.57;2.88;;;;;;;;;;5039628;28;20390;-68
2022/12/24 12:00:44;;;;;;;13.00;3.05;;;;;;;;;;5054417;28;20048;-72
2022/12/24 12:03:45;;;;;;;10.50;2.75;;;;;;;;;;5048734;28;20041;-72
2022/12/24 12:06:41;;;;;;;8.68;2.80;;;;;;;;;;5044154;28;20037;-71
2022/12/24 12:09:30;;;;;;;14.57;3.72;;;;;;;;;;5052841;28;20036;-74
2022/12/24 12:12:23;;;;;;;13.15;3.40;;;;;;;;;;5041506;28;20024;-71
2022/12/24 12:15:14;;;;;;;14.55;2.80;;;;;;;;;;5054790;28;20555;-77
2022/12/24 12:18:06;;;;;;;8.95;2.65;;;;;;;;;;5039773;28;20048;-69
2022/12/24 12:20:52;;;;;;;14.27;3.10;;;;;;;;;;5054279;28;20071;-67
2022/12/24 12:23:45;;;;;;;13.30;3.05;;;;;;;;;;5045801;28;20033;-67
2022/12/24 12:26:32;;;;;;;10.60;3.38;;;;;;;;;;5044759;28;20094;-69
2022/12/24 12:29:24;;;;;;;9.15;2.72;;;;;;;;;;5044706;28;20444;-69
2022/12/24 12:32:13;;;;;;;14.18;3.92;;;;;;;;;;5051126;28;20494;-70
2022/12/24 12:35:03;;;;;;;13.30;3.55;;;;;;;;;;5051323;28;20067;-72
2022/12/24 12:37:57;;;;;;;14.82;2.72;;;;;;;;;;5044251;28;20071;-76
2022/12/24 12:40:45;;;;;;;8.70;2.50;;;;;;;;;;5048007;28;20523;-78
2022/12/24 12:43:31;;;;;;;9.15;2.28;;;;;;;;;;5040058;28;20097;-76
2022/12/24 12:46:20;;;;;;;11.40;3.30;;;;;;;;;;5071785;28;20025;-76
2022/12/24 12:49:21;;;;;;;10.30;3.97;;;;;;;;;;5053688;28;20113;-75
2022/12/24 12:52:25;;;;;;;13.45;3.38;;;;;;;;;;5039524;28;20055;-69
2022/12/24 12:55:16;;;;;;;7.95;3.00;;;;;;;;;;5060127;28;20089;-71
2022/12/24 12:58:03;;;;;;;9.85;3.15;;;;;;;;;;5052695;28;20029;-69
2022/12/24 13:00:51;;;;;;;12.52;3.40;;;;;;;;;;5055998;28;20513;-69
2022/12/24 13:03:59;;;;;;;10.88;3.80;;;;;;;;;;5052096;28;20072;-69
2022/12/24 13:07:03;;;;;;;12.85;3.58;;;;;;;;;;5053142;28;20032;-69
2022/12/24 13:10:03;;;;;;;9.52;2.72;;;;;;;;;;5052363;28;20152;-70
2022/12/24 13:12:51;;;;;;;13.45;3.20;;;;;;;;;;5047447;28;20036;-67
2022/12/24 13:15:36;;;;;;;11.50;2.85;;;;;;;;;;5058261;28;20039;-73
2022/12/24 13:18:40;;;;;;;6.63;2.17;;;;;;;;;;5046691;28;20039;-73
2022/12/24 13:21:27;;;;;;;10.02;2.55;;;;;;;;;;5056310;28;20025;-72
2022/12/24 13:24:17;;;;;;;13.65;3.08;;;;;;;;;;5044958;28;20029;-74
2022/12/24 13:27:02;;;;;;;10.10;2.63;;;;;;;;;;5041789;28;20387;-73
2022/12/24 13:29:56;;;;;;;11.70;3.03;;;;;;;;;;5053858;28;20471;-71
2022/12/24 13:32:49;;;;;;;5.18;2.50;;;;;;;;;;5042915;28;20452;-66
2022/12/24 13:35:35;;;;;;;10.98;2.33;;;;;;;;;;5041232;28;20082;-66
2022/12/24 13:38:26;;;;;;;7.85;2.67;;;;;;;;;;5049805;28;20037;-67
2022/12/24 13:41:30;;;;;;;10.95;3.33;;;;;;;;;;5050652;28;20459;-67
2022/12/24 13:44:17;;;;;;;9.65;3.13;;;;;;;;;;5045770;28;20043;-66
2022/12/24 13:47:04;;;;;;;9.95;3.50;;;;;;;;;;5049931;28;20370;-71
2022/12/24 13:49:50;;;;;;;8.75;2.03;;;;;;;;;;5046842;28;20032;-74
2022/12/24 13:52:35;;;;;;;5.75;2.33;;;;;;;;;;5052678;28;20047;-78
2022/12/24 13:55:21;;;;;;;7.65;2.40;;;;;;;;;;5053004;28;20032;-78
2022/12/24 13:58:15;;;;;;;12.75;2.97;;;;;;;;;;5042386;28;20025;-77
2022/12/24 14:01:01;;;;;;;10.50;2.85;;;;;;;;;;5059767;28;20044;-77
2022/12/24 14:03:52;;;;;;;15.93;2.85;;;;;;;;;;5052184;28;20039;-78
2022/12/24 14:06:41;;;;;;;10.07;3.17;;;;;;;;;;5054595;28;20040;-66
2022/12/24 14:09:26;;;;;;;12.65;2.75;;;;;;;;;;5042971;28;20418;-67
2022/12/24 14:12:13;;;;;;;12.63;3.00;;;;;;;;;;5051393;28;20112;-66
2022/12/24 14:15:18;;;;;;;15.00;3.33;;;;;;;;;;5046149;28;20032;-67
2022/12/24 14:18:03;;;;;;;11.65;4.10;;;;;;;;;;5037174;28;20399;-66
2022/12/24 14:20:53;;;;;;;9.23;3.15;;;;;;;;;;5045698;28;20069;-66
2022/12/24 14:23:38;;;;;;;;;;;;;;;;;;5053129;28;20564;-66
2022/12/24 14:26:27;;;;;;;13.95;3.60;;;;;;;;;;5057262;28;19916;-80
2022/12/24 14:29:19;;;;;;;17.87;4.23;;;;;;;;;;5048556;28;20031;-69
2022/12/24 14:32:12;;;;;;;15.15;4.43;;;;;;;;;;5049025;28;20282;-69
2022/12/24 14:35:04;;;;;;;12.93;2.75;;;;;;;;;;5050728;28;20043;-71
2022/12/24 14:37:51;;;;;;;9.57;3.78;;;;;;;;;;5049612;28;20564;-69
2022/12/24 14:40:40;;;;;;;10.27;3.15;;;;;;;;;;5040000;28;20034;-68
2022/12/24 14:43:47;;;;;;;15.85;3.92;;;;;;;;;;5041561;28;20052;-72
2022/12/24 14:46:42;;;;;;;10.35;3.53;;;;;;;;;;5046616;28;20137;-67
2022/12/24 14:49:52;;;;;;;8.70;2.70;;;;;;;;;;5044653;28;20079;-68
2022/12/24 14:52:37;;;;;;;11.23;3.20;;;;;;;;;;5047717;28;20534;-69
2022/12/24 14:55:26;;;;;;;9.05;2.88;;;;;;;;;;5046069;28;20044;-69
2022/12/24 14:58:20;;;;;;;15.27;3.43;;;;;;;;;;5050016;28;20426;-67
2022/12/24 15:01:24;;;;;;;6.40;3.28;;;;;;;;;;5044129;28;20301;-66
2022/12/24 15:04:10;;;;;;;10.43;3.03;;;;;;;;;;5049751;28;20028;-74
2022/12/24 15:06:56;;;;;;;21.77;3.13;;;;;;;;;;5045581;28;20124;-73
2022/12/24 15:09:42;;;;;;;10.82;2.85;;;;;;;;;;5039920;28;20091;-74
2022/12/24 15:12:27;;;;;;;12.40;3.95;;;;;;;;;;5050561;28;20048;-73
2022/12/24 15:15:14;;;;;;;13.98;3.10;;;;;;;;;;5045201;28;20032;-75
2022/12/24 15:18:00;;;;;;;8.93;2.70;;;;;;;;;;5038915;28;20553;-71
2022/12/24 15:20:49;;;;;;;14.93;4.93;;;;;;;;;;5043210;28;20044;-74
2022/12/24 15:23:35;;;;;;;12.00;3.40;;;;;;;;;;5039601;28;20495;-73
2022/12/24 15:26:20;;;;;;;17.90;3.22;;;;;;;;;;5061598;28;20051;-72
2022/12/24 15:29:13;;;;;;;16.67;5.65;;;;;;;;;;5046292;28;20032;-71
2022/12/24 15:31:59;;;;;;;14.25;3.72;;;;;;;;;;5048266;28;20090;-74
2022/12/24 15:34:47;;;;;;;14.68;3.63;;;;;;;;;;5045940;28;20051;-71
2022/12/24 15:37:38;;;;;;;10.85;3.22;;;;;;;;;;5055613;28;20119;-74
2022/12/24 15:40:23;;;;;;;15.35;3.80;;;;;;;;;;5035597;28;20043;-73
2022/12/24 15:43:09;;;;;;;13.27;3.78;;;;;;;;;;5048616;28;20052;-72
2022/12/24 15:45:54;;;;;;;11.05;3.72;;;;;;;;;;5052238;28;20146;-71
2022/12/24 15:48:43;;;;;;;8.50;2.90;;;;;;;;;;5041216;28;20079;-71
2022/12/24 15:51:33;;;;;;;10.68;3.50;;;;;;;;;;5039554;28;20437;-71
2022/12/24 15:54:20;;;;;;;14.45;4.68;;;;;;;;;;5043530;28;20052;-72
2022/12/24 15:57:21;;;;;;;14.13;4.20;;;;;;;;;;5044993;28;20278;-69
2022/12/24 16:00:19;;;;;;;14.93;3.42;;;;;;;;;;5047024;28;20075;-73
2022/12/24 16:03:16;;;;;;;15.98;4.75;;;;;;;;;;5047358;28;20032;-73
2022/12/24 16:06:05;;;;;;;15.55;4.72;;;;;;;;;;5038304;28;20547;-73
2022/12/24 16:08:50;;;;;;;12.52;4.13;;;;;;;;;;5046535;28;20099;-73
2022/12/24 16:11:35;;;;;;;12.02;4.30;;;;;;;;;;5040591;28;20190;-72
2022/12/24 16:14:22;;;;;;;15.02;4.47;;;;;;;;;;5045479;28;20024;-70
2022/12/24 16:17:24;;;;;;;12.60;3.63;;;;;;;;;;5043865;28;20043;-72
2022/12/24 16:20:16;;;;;;;11.85;4.22;;;;;;;;;;5041691;28;20083;-69
2022/12/24 16:23:02;;;;;;;13.13;4.95;;;;;;;;;;5041963;28;20032;-70
2022/12/24 16:25:47;;;;;;;11.15;4.45;;;;;;;;;;5042325;28;20571;-68
2022/12/24 16:28:32;;;;;;;15.93;4.47;;;;;;;;;;5045837;28;20388;-69
2022/12/24 16:31:18;;;;;;;14.13;4.68;;;;;;;;;;5045574;28;20036;-69
2022/12/24 16:34:04;;;;;;;10.73;3.35;;;;;;;;;;5036758;28;20044;-72
2022/12/24 16:36:49;;;;;;;9.30;3.08;;;;;;;;;;5041328;28;20048;-77
2022/12/24 16:39:34;;;;;;;11.20;3.92;;;;;;;;;;5043649;28;20466;-77
2022/12/24 16:45:24;;;;;;;17.08;4.75;;;;;;;;;;5048665;28;20036;-76
2022/12/24 16:48:10;;;;;;;12.80;4.13;;;;;;;;;;5053495;28;20036;-75
2022/12/24 16:50:56;;;;;;;14.27;4.40;;;;;;;;;;5051463;28;20112;-76